createdAt,value
2022-08-12T00:03:02.804Z,72.15
2022-08-12T00:06:23.118Z,72.38
2022-08-12T00:09:41.500Z,72.09
2022-08-12T00:13:02.327Z,72.68
2022-08-12T00:16:21.577Z,72.84
2022-08-12T00:19:40.260Z,73.39
2022-08-12T00:23:00.176Z,73.93
2022-08-12T00:26:22.582Z,73.44
2022-08-12T00:29:48.097Z,73.42
2022-08-12T00:33:11.008Z,73.26
2022-08-12T00:36:35.395Z,73.20
2022-08-12T00:39:56.131Z,73.69
2022-08-12T00:43:02.348Z,73.39
2022-08-12T00:46:22.967Z,73.81
2022-08-12T00:49:32.435Z,73.33
2022-08-12T00:52:39.072Z,73.30
2022-08-12T00:55:48.878Z,73.82
2022-08-12T00:58:59.466Z,73.86
2022-08-12T01:02:11.980Z,74.00
2022-08-12T01:05:34.015Z,74.32
2022-08-12T01:09:13.050Z,74.44
2022-08-12T01:12:22.706Z,74.13
2022-08-12T01:15:31.404Z,74.61
2022-08-12T01:18:45.008Z,74.24
2022-08-12T01:22:25.825Z,74.33
2022-08-12T01:25:55.916Z,74.58
2022-08-12T01:29:16.941Z,74.98
2022-08-12T01:32:34.604Z,75.05
2022-08-12T01:36:07.747Z,75.29
2022-08-12T01:39:18.850Z,75.39
2022-08-12T01:42:29.844Z,75.33
2022-08-12T01:45:43.037Z,74.80
2022-08-12T01:49:21.751Z,74.79
2022-08-12T01:52:44.969Z,74.31
2022-08-12T01:55:53.162Z,74.19
2022-08-12T01:59:20.307Z,74.30
2022-08-12T02:02:39.820Z,73.88
2022-08-12T02:06:28.205Z,73.66
2022-08-12T02:10:51.314Z,73.77
2022-08-12T02:14:21.403Z,74.28
2022-08-12T02:18:06.480Z,74.43
2022-08-12T02:21:34.384Z,75.00
2022-08-12T02:24:47.301Z,75.07
2022-08-12T02:27:56.083Z,74.74
2022-08-12T02:31:09.209Z,74.67
2022-08-12T02:34:19.099Z,74.74
2022-08-12T02:37:30.215Z,74.41
2022-08-12T02:40:45.515Z,74.40
2022-08-12T02:43:57.591Z,74.47
2022-08-12T02:48:00.049Z,74.42
2022-08-12T02:50:48.847Z,74.52
2022-08-12T02:54:05.624Z,75.00
2022-08-12T02:57:13.444Z,75.00
2022-08-12T03:00:23.494Z,75.65
2022-08-12T03:03:36.413Z,75.38
2022-08-12T03:06:56.979Z,75.30
2022-08-12T03:10:15.998Z,75.68
2022-08-12T03:13:33.105Z,75.68
2022-08-12T03:18:36.264Z,72.47
2022-08-12T03:21:56.449Z,73.39
2022-08-12T03:25:27.719Z,73.12
2022-08-12T03:28:50.488Z,73.43
2022-08-12T03:32:09.217Z,72.99
2022-08-12T03:35:41.051Z,72.45
2022-08-12T03:39:13.718Z,72.79
2022-08-12T03:42:40.077Z,73.34
2022-08-12T03:46:02.112Z,73.56
2022-08-12T03:49:22.951Z,73.60
2022-08-12T03:52:43.743Z,73.57
2022-08-12T03:56:01.859Z,73.55
2022-08-12T03:59:23.080Z,73.66
2022-08-12T04:02:30.247Z,72.87
2022-08-12T04:05:55.215Z,72.81
2022-08-12T04:09:16.152Z,73.14
2022-08-12T04:12:35.098Z,72.80
2022-08-12T04:15:44.246Z,73.12
2022-08-12T04:18:50.785Z,72.76
2022-08-12T04:22:01.366Z,72.46
2022-08-12T04:25:14.570Z,71.90
2022-08-12T04:28:28.372Z,71.21
2022-08-12T04:31:35.333Z,70.17
2022-08-12T04:34:40.969Z,69.02
2022-08-12T04:37:59.130Z,67.56
2022-08-12T04:41:11.275Z,65.51
2022-08-12T04:44:16.831Z,64.06
2022-08-12T04:47:24.268Z,62.18
2022-08-12T04:50:36.072Z,60.95
2022-08-12T04:53:43.918Z,59.28
2022-08-12T04:57:04.002Z,58.78
2022-08-12T05:00:17.536Z,57.47
2022-08-12T05:03:23.684Z,56.20
2022-08-12T05:06:29.682Z,55.06
2022-08-12T05:10:01.031Z,53.70
2022-08-12T05:13:29.774Z,53.67
2022-08-12T05:16:36.205Z,53.57
2022-08-12T05:19:44.258Z,53.58
2022-08-12T05:22:57.180Z,52.86
2022-08-12T05:26:07.401Z,50.91
2022-08-12T05:30:05.469Z,49.47
2022-08-12T05:32:42.617Z,50.01
2022-08-12T05:35:50.343Z,50.37
2022-08-12T05:39:01.862Z,49.04
2022-08-12T05:42:19.254Z,49.15
2022-08-12T05:45:44.877Z,50.03
2022-08-12T05:48:52.534Z,48.19
2022-08-12T05:51:58.541Z,49.44
2022-08-12T05:55:04.064Z,49.24
2022-08-12T05:58:10.780Z,49.00
2022-08-12T06:02:11.714Z,48.31
2022-08-12T06:04:45.460Z,46.73
2022-08-12T06:08:02.118Z,46.40
2022-08-12T06:11:09.219Z,45.24
2022-08-12T06:14:15.033Z,43.93
2022-08-12T06:17:25.542Z,43.58
2022-08-12T06:20:34.309Z,42.72
2022-08-12T06:23:42.850Z,42.86
2022-08-12T06:26:48.641Z,42.60
2022-08-12T06:30:10.253Z,42.62
2022-08-12T06:33:22.807Z,41.93
2022-08-12T06:36:33.606Z,41.72
2022-08-12T06:39:39.409Z,41.69
2022-08-12T06:42:59.977Z,41.48
2022-08-12T06:46:06.403Z,42.19
2022-08-12T06:49:14.646Z,40.58
2022-08-12T06:52:25.225Z,40.54
2022-08-12T06:55:30.741Z,40.58
2022-08-12T06:58:40.354Z,40.59
2022-08-12T07:01:51.164Z,41.70
2022-08-12T07:04:59.979Z,40.22
2022-08-12T07:08:11.063Z,41.16
2022-08-12T07:11:17.208Z,40.43
2022-08-12T07:14:22.834Z,40.80
2022-08-12T07:17:36.750Z,41.19
2022-08-12T07:20:52.802Z,39.84
2022-08-12T07:24:01.603Z,41.64
2022-08-12T07:27:07.379Z,40.75
2022-08-12T07:30:14.836Z,40.31
2022-08-12T07:33:23.919Z,40.39
2022-08-12T07:36:34.031Z,40.12
2022-08-12T07:39:50.997Z,42.50
2022-08-12T07:43:05.295Z,40.64
2022-08-12T07:46:15.479Z,40.08
2022-08-12T07:49:24.869Z,40.69
2022-08-12T07:52:33.133Z,41.26
2022-08-12T07:55:39.210Z,39.57
2022-08-12T07:58:47.226Z,39.77
2022-08-12T08:01:59.672Z,39.67
2022-08-12T08:05:06.933Z,41.27
2022-08-12T08:08:27.633Z,41.01
2022-08-12T08:11:45.582Z,41.45
2022-08-12T08:14:52.172Z,41.91
2022-08-12T08:18:02.972Z,44.07
2022-08-12T08:21:11.052Z,43.37
2022-08-12T08:24:19.284Z,44.56
2022-08-12T08:27:25.089Z,45.05
2022-08-12T08:30:32.289Z,46.84
2022-08-12T08:34:04.205Z,47.62
2022-08-12T08:37:07.753Z,47.33
2022-08-12T08:40:31.595Z,46.55
2022-08-12T08:43:43.914Z,44.99
2022-08-12T08:46:51.593Z,45.59
2022-08-12T08:50:01.417Z,44.21
2022-08-12T08:53:08.994Z,42.82
2022-08-12T08:56:17.292Z,42.80
2022-08-12T08:59:23.467Z,39.27
2022-08-12T09:02:29.431Z,38.02
2022-08-12T09:06:02.019Z,37.19
2022-08-12T09:09:02.708Z,36.73
2022-08-12T09:12:36.099Z,38.50
2022-08-12T09:15:42.001Z,37.38
2022-08-12T09:18:47.827Z,37.46
2022-08-12T09:25:26.604Z,37.52
2022-08-12T09:28:42.156Z,38.87
2022-08-12T09:32:06.938Z,36.84
2022-08-12T09:35:18.612Z,36.99
2022-08-12T09:38:32.031Z,38.19
2022-08-12T09:42:32.851Z,38.95
2022-08-12T09:46:05.261Z,39.11
2022-08-12T09:48:55.765Z,40.04
2022-08-12T09:52:02.665Z,39.16
2022-08-12T09:56:06.347Z,40.36
2022-08-12T09:58:56.488Z,38.29
2022-08-12T10:02:45.812Z,38.85
2022-08-12T10:06:19.687Z,40.82
2022-08-12T10:09:08.422Z,39.95
2022-08-12T10:12:31.172Z,38.11
2022-08-12T10:16:01.871Z,36.52
2022-08-12T10:19:16.988Z,36.38
2022-08-12T10:22:39.072Z,34.71
2022-08-12T10:26:36.794Z,34.11
2022-08-12T10:30:40.899Z,34.70
2022-08-12T10:33:02.937Z,35.04
2022-08-12T10:36:36.199Z,34.62
2022-08-12T10:40:02.009Z,33.31
2022-08-12T10:43:25.414Z,33.58
2022-08-12T10:46:33.385Z,35.30
2022-08-12T10:50:02.916Z,35.75
2022-08-12T10:53:10.869Z,33.92
2022-08-12T10:56:25.915Z,34.01
2022-08-12T11:00:35.023Z,34.32
2022-08-12T11:04:25.349Z,34.24
2022-08-12T11:07:09.386Z,34.93
2022-08-12T11:10:04.113Z,33.13
2022-08-12T11:13:09.835Z,34.03
2022-08-12T11:16:21.770Z,34.30
2022-08-12T11:19:33.078Z,33.35
2022-08-12T11:22:39.095Z,31.59
2022-08-12T11:25:57.385Z,31.45
2022-08-12T11:29:06.000Z,31.54
2022-08-12T11:32:28.837Z,32.04
2022-08-12T11:35:34.563Z,33.30
2022-08-12T11:38:43.279Z,35.30
2022-08-12T11:41:59.598Z,33.60
2022-08-12T11:45:05.445Z,33.67
2022-08-12T11:48:16.939Z,34.05
2022-08-12T11:51:25.030Z,34.86
2022-08-12T11:54:31.175Z,36.29
2022-08-12T11:58:48.890Z,34.46
2022-08-12T12:02:02.186Z,33.80
2022-08-12T12:04:44.002Z,32.89
2022-08-12T12:08:38.111Z,34.28
2022-08-12T12:11:16.205Z,35.89
2022-08-12T12:14:37.841Z,36.98
2022-08-12T12:17:46.896Z,37.83
2022-08-12T12:20:53.727Z,36.54
2022-08-12T12:24:00.812Z,35.71
2022-08-12T12:27:09.141Z,33.49
2022-08-12T12:30:29.652Z,34.08
2022-08-12T12:33:46.182Z,33.39
2022-08-12T12:37:02.031Z,33.61
2022-08-12T12:40:09.363Z,33.74
2022-08-12T12:43:16.615Z,34.94
2022-08-12T12:46:37.404Z,35.27
2022-08-12T12:49:42.913Z,35.85
2022-08-12T12:52:48.752Z,34.67
2022-08-12T12:55:54.287Z,34.08
2022-08-12T12:58:59.866Z,33.95
2022-08-12T13:02:08.839Z,35.21
2022-08-12T13:05:16.245Z,35.48
2022-08-12T13:08:28.612Z,36.00
2022-08-12T13:11:44.718Z,36.64
2022-08-12T13:14:50.918Z,36.11
2022-08-12T13:18:08.632Z,35.75
2022-08-12T13:21:32.755Z,35.50
2022-08-12T13:24:40.857Z,36.70
2022-08-12T13:27:50.860Z,37.48
2022-08-12T13:30:57.750Z,37.76
2022-08-12T13:34:32.024Z,36.76
2022-08-12T13:37:43.937Z,36.67
2022-08-12T13:41:11.709Z,35.78
2022-08-12T13:44:17.458Z,36.89
2022-08-12T13:47:31.429Z,35.75
2022-08-12T13:50:48.875Z,35.51
2022-08-12T13:54:05.038Z,34.46
2022-08-12T13:57:17.142Z,34.34
2022-08-12T14:00:34.418Z,35.09
2022-08-12T14:03:49.965Z,35.55
2022-08-12T14:07:09.449Z,34.87
2022-08-12T14:10:35.435Z,34.32
2022-08-12T14:14:03.681Z,34.71
2022-08-12T14:17:19.907Z,34.76
2022-08-12T14:20:28.577Z,34.37
2022-08-12T14:24:04.083Z,34.10
2022-08-12T14:27:12.871Z,33.57
2022-08-12T14:30:29.075Z,34.05
2022-08-12T14:33:43.907Z,33.75
2022-08-12T14:36:50.210Z,33.89
2022-08-12T14:39:58.415Z,33.87
2022-08-12T14:43:06.260Z,33.77
2022-08-12T14:46:15.800Z,34.19
2022-08-12T14:50:00.693Z,34.74
2022-08-12T14:59:58.886Z,34.76
2022-08-12T15:03:52.826Z,34.74
2022-08-12T15:06:56.440Z,34.34
2022-08-12T15:10:02.134Z,34.82
2022-08-12T15:13:18.749Z,34.80
2022-08-12T15:16:27.129Z,34.77
2022-08-12T15:20:28.470Z,34.63
2022-08-12T15:23:00.153Z,34.58
2022-08-12T15:26:11.785Z,34.12
2022-08-12T15:29:32.925Z,33.95
2022-08-12T15:32:38.597Z,34.19
2022-08-12T15:35:52.039Z,33.93
2022-08-12T15:39:01.912Z,33.54
2022-08-12T15:42:08.494Z,34.25
2022-08-12T15:45:23.516Z,34.27
2022-08-12T15:48:32.910Z,33.93
2022-08-12T15:51:58.294Z,34.49
2022-08-12T15:55:16.698Z,34.61
2022-08-12T15:58:27.000Z,33.95
2022-08-12T16:01:36.206Z,33.74
2022-08-12T16:04:41.804Z,33.95
2022-08-12T16:07:53.272Z,33.62
2022-08-12T16:10:59.925Z,33.67
2022-08-12T16:14:16.217Z,34.37
2022-08-12T16:18:17.860Z,34.25
2022-08-12T16:20:58.719Z,34.29
2022-08-12T16:24:07.702Z,34.53
2022-08-12T16:27:13.881Z,34.64
2022-08-12T16:30:29.430Z,34.15
2022-08-12T16:33:56.283Z,34.39
2022-08-12T16:37:04.753Z,34.40
2022-08-12T16:40:15.097Z,34.39
2022-08-12T16:43:26.460Z,33.92
2022-08-12T16:46:33.839Z,34.47
2022-08-12T16:49:45.109Z,34.66
2022-08-12T16:52:51.193Z,34.14
2022-08-12T16:56:03.042Z,34.66
2022-08-12T16:59:30.838Z,34.41
2022-08-12T17:02:58.339Z,34.72
2022-08-12T17:06:09.813Z,35.10
2022-08-12T17:09:24.105Z,35.73
2022-08-12T17:12:37.606Z,35.58
2022-08-12T17:15:56.809Z,35.92
2022-08-12T17:19:11.461Z,36.43
2022-08-12T17:22:31.095Z,36.82
2022-08-12T17:25:38.364Z,37.13
2022-08-12T17:28:46.975Z,37.38
2022-08-12T17:32:03.030Z,37.64
2022-08-12T17:35:29.914Z,37.69
2022-08-12T17:38:50.745Z,38.57
2022-08-12T17:41:57.697Z,38.69
2022-08-12T17:45:18.484Z,39.30
2022-08-12T17:48:34.439Z,39.45
2022-08-12T17:51:50.599Z,39.52
2022-08-12T17:55:40.779Z,40.40
2022-08-12T17:58:42.604Z,40.77
2022-08-12T18:01:58.528Z,41.00
2022-08-12T18:05:10.746Z,41.29
2022-08-12T18:08:19.373Z,41.54
2022-08-12T18:12:06.645Z,41.54
2022-08-12T18:15:26.774Z,42.08
2022-08-12T18:18:50.348Z,42.73
2022-08-12T18:22:04.960Z,43.06
2022-08-12T18:26:15.388Z,42.80
2022-08-12T18:29:14.709Z,43.03
2022-08-12T18:32:35.088Z,43.26
2022-08-12T18:35:53.719Z,43.48
2022-08-12T18:39:08.334Z,44.64
2022-08-12T18:42:12.835Z,45.02
2022-08-12T18:45:24.957Z,45.28
2022-08-12T18:48:43.195Z,45.75
2022-08-12T18:52:02.698Z,46.30
2022-08-12T18:55:13.685Z,47.00
2022-08-12T18:58:24.091Z,47.08
2022-08-12T19:02:21.841Z,47.59
2022-08-12T19:05:21.556Z,48.10
2022-08-12T19:08:30.472Z,48.31
2022-08-12T19:11:51.536Z,47.96
2022-08-12T19:15:04.304Z,48.74
2022-08-12T19:18:15.092Z,49.33
2022-08-12T19:21:26.426Z,49.37
2022-08-12T19:24:46.415Z,49.73
2022-08-12T19:27:57.893Z,49.30
2022-08-12T19:31:56.537Z,51.16
2022-08-12T19:42:42.658Z,51.20
2022-08-12T19:45:54.559Z,51.53
2022-08-12T19:57:19.159Z,51.86
2022-08-12T20:00:26.633Z,51.88
2022-08-12T20:03:41.226Z,52.28
2022-08-12T20:06:57.336Z,52.91
2022-08-12T20:10:16.761Z,53.22
2022-08-12T20:13:37.173Z,53.83
2022-08-12T20:16:52.935Z,54.34
2022-08-12T20:20:19.262Z,54.76
2022-08-12T20:29:01.547Z,55.57
2022-08-12T20:32:13.044Z,55.35
2022-08-12T20:35:24.568Z,55.35
2022-08-12T20:38:31.020Z,55.86
2022-08-12T20:41:36.974Z,55.78
2022-08-12T20:44:45.112Z,55.74
2022-08-12T20:47:54.996Z,56.18
2022-08-12T20:51:19.111Z,56.53
2022-08-12T20:54:32.370Z,57.18
2022-08-12T20:58:02.429Z,57.82
2022-08-12T21:01:06.548Z,57.86
2022-08-12T21:04:29.547Z,58.15
2022-08-12T21:07:40.888Z,58.12
2022-08-12T21:10:58.892Z,59.00
2022-08-12T21:14:06.411Z,58.96
2022-08-12T21:17:17.099Z,59.48
2022-08-12T21:20:25.923Z,59.84
2022-08-12T21:23:38.486Z,60.64
2022-08-12T21:26:53.451Z,60.40
2022-08-12T21:30:00.620Z,60.81
2022-08-12T21:33:10.724Z,61.49
2022-08-12T21:36:34.250Z,61.89
2022-08-12T21:39:40.127Z,62.17
2022-08-12T21:42:57.508Z,62.64
2022-08-12T21:46:03.837Z,63.40
2022-08-12T21:49:16.504Z,63.63
2022-08-12T21:52:48.777Z,63.87
2022-08-12T21:55:58.039Z,63.80
2022-08-12T21:59:03.647Z,64.20
2022-08-12T22:02:28.282Z,64.05
2022-08-12T22:05:49.298Z,64.55
2022-08-12T22:09:02.404Z,64.88
2022-08-12T22:12:21.313Z,65.17
2022-08-12T22:15:27.009Z,65.47
2022-08-12T22:18:34.265Z,65.53
2022-08-12T22:21:48.323Z,65.87
2022-08-12T22:25:00.773Z,66.71
2022-08-12T22:28:24.756Z,66.64
2022-08-12T22:31:32.062Z,66.49
2022-08-12T22:34:37.921Z,67.01
2022-08-12T22:37:46.251Z,67.17
2022-08-12T22:41:00.487Z,67.20
2022-08-12T22:44:29.297Z,67.22
2022-08-12T22:47:54.883Z,67.27
2022-08-12T22:51:02.013Z,67.56
2022-08-12T22:54:08.179Z,68.26
2022-08-12T22:57:48.937Z,68.64
2022-08-12T23:01:02.206Z,68.68
2022-08-12T23:04:16.203Z,68.93
2022-08-12T23:07:36.392Z,69.38
2022-08-12T23:10:59.208Z,69.77
2022-08-12T23:14:07.695Z,69.69
2022-08-12T23:17:35.244Z,69.77
2022-08-12T23:20:38.962Z,69.69
2022-08-12T23:24:09.167Z,70.57
2022-08-12T23:27:23.140Z,71.46
2022-08-12T23:30:35.110Z,72.08
2022-08-12T23:34:02.723Z,72.82
2022-08-12T23:37:46.664Z,72.72
2022-08-12T23:40:57.687Z,72.31
2022-08-12T23:44:06.873Z,72.24
2022-08-12T23:47:15.147Z,71.58
2022-08-12T23:50:33.454Z,71.75
2022-08-12T23:53:43.161Z,71.94
2022-08-12T23:56:48.788Z,71.98
2022-08-12T23:59:55.650Z,71.86
